createdAt,value
2023-05-09T00:01:55.084Z,47.30
2023-05-09T00:04:23.114Z,45.83
2023-05-09T00:06:51.079Z,47.30
2023-05-09T00:09:19.111Z,45.73
2023-05-09T00:11:47.069Z,46.77
2023-05-09T00:14:18.273Z,44.97
2023-05-09T00:16:46.460Z,44.13
2023-05-09T00:19:14.502Z,46.00
2023-05-09T00:21:42.430Z,44.37
2023-05-09T00:24:10.442Z,45.03
2023-05-09T00:26:38.380Z,45.40
2023-05-09T00:29:06.411Z,45.30
2023-05-09T00:31:36.205Z,45.80
2023-05-09T00:34:04.190Z,44.37
2023-05-09T00:36:32.155Z,45.77
2023-05-09T00:39:00.123Z,45.40
2023-05-09T00:41:28.068Z,46.60
2023-05-09T00:43:56.025Z,45.97
2023-05-09T00:46:24.727Z,44.40
2023-05-09T00:48:54.108Z,44.87
2023-05-09T00:51:22.628Z,43.83
2023-05-09T00:53:50.639Z,44.47
2023-05-09T00:56:18.641Z,44.40
2023-05-09T00:58:46.663Z,44.70
2023-05-09T01:01:14.660Z,43.47
2023-05-09T01:03:43.081Z,44.57
2023-05-09T01:06:21.078Z,43.97
2023-05-09T01:08:58.581Z,44.53
2023-05-09T01:11:33.639Z,45.33
2023-05-09T01:14:13.336Z,44.20
2023-05-09T01:16:48.311Z,43.83
2023-05-09T01:19:47.129Z,45.57
2023-05-09T01:22:17.481Z,45.60
2023-05-09T01:25:19.589Z,43.90
2023-05-09T01:27:54.570Z,42.50
2023-05-09T01:30:26.380Z,44.63
2023-05-09T01:33:00.472Z,43.60
2023-05-09T01:35:32.453Z,44.27
2023-05-09T01:38:00.951Z,45.17
2023-05-09T01:40:33.157Z,43.70
2023-05-09T01:43:04.799Z,45.77
2023-05-09T01:45:34.701Z,44.50
2023-05-09T01:48:03.602Z,43.97
2023-05-09T01:50:32.571Z,43.10
2023-05-09T01:53:02.364Z,44.83
2023-05-09T01:55:33.189Z,42.43
2023-05-09T01:58:02.190Z,44.20
2023-05-09T02:00:30.396Z,43.60
2023-05-09T02:03:00.482Z,43.50
2023-05-09T02:05:30.566Z,42.77
2023-05-09T02:07:59.436Z,43.57
2023-05-09T02:10:29.124Z,44.10
2023-05-09T02:12:57.536Z,42.80
2023-05-09T02:15:26.157Z,43.50
2023-05-09T02:17:54.370Z,44.87
2023-05-09T02:20:23.808Z,43.63
2023-05-09T02:22:52.274Z,43.53
2023-05-09T02:25:20.490Z,46.47
2023-05-09T02:27:48.604Z,43.83
2023-05-09T02:30:23.113Z,46.20
2023-05-09T02:32:54.481Z,43.10
2023-05-09T02:35:25.989Z,44.53
2023-05-09T02:37:54.287Z,43.07
2023-05-09T02:40:23.649Z,44.60
2023-05-09T02:42:51.572Z,44.77
2023-05-09T02:45:19.509Z,45.83
2023-05-09T02:47:47.527Z,42.03
2023-05-09T02:50:15.649Z,43.03
2023-05-09T02:52:44.965Z,43.03
2023-05-09T02:55:13.311Z,42.90
2023-05-09T02:57:41.376Z,44.63
2023-05-09T03:00:10.517Z,42.77
2023-05-09T03:02:39.142Z,42.70
2023-05-09T03:05:07.782Z,44.13
2023-05-09T03:07:35.911Z,42.63
2023-05-09T03:10:05.963Z,43.43
2023-05-09T03:12:33.884Z,42.10
2023-05-09T03:15:02.253Z,43.00
2023-05-09T03:17:30.248Z,42.70
2023-05-09T03:19:59.367Z,43.33
2023-05-09T03:22:27.893Z,44.40
2023-05-09T03:24:55.766Z,43.10
2023-05-09T03:27:26.162Z,42.70
2023-05-09T03:29:54.093Z,42.90
2023-05-09T03:32:22.030Z,42.73
2023-05-09T03:34:50.001Z,43.60
2023-05-09T03:37:20.778Z,42.70
2023-05-09T03:39:48.717Z,43.77
2023-05-09T03:42:16.661Z,42.87
2023-05-09T03:44:46.425Z,43.60
2023-05-09T03:47:14.354Z,42.30
2023-05-09T03:49:42.641Z,41.73
2023-05-09T03:52:10.899Z,42.67
2023-05-09T03:54:38.758Z,42.47
2023-05-09T03:57:07.058Z,42.13
2023-05-09T03:59:34.962Z,42.33
2023-05-09T04:02:05.264Z,41.13
2023-05-09T04:04:33.245Z,42.53
2023-05-09T04:07:01.176Z,41.23
2023-05-09T04:09:29.228Z,43.30
2023-05-09T04:11:57.087Z,41.97
2023-05-09T04:14:25.020Z,45.27
2023-05-09T04:16:53.041Z,50.13
2023-05-09T04:19:22.319Z,42.50
2023-05-09T04:21:50.243Z,42.37
2023-05-09T04:24:18.203Z,43.03
2023-05-09T04:26:46.122Z,50.77
2023-05-09T04:29:14.127Z,43.67
2023-05-09T04:31:42.085Z,43.63
2023-05-09T04:34:10.028Z,45.57
2023-05-09T04:36:39.332Z,44.20
2023-05-09T04:39:08.017Z,42.07
2023-05-09T04:41:35.971Z,42.10
2023-05-09T04:44:04.255Z,46.53
2023-05-09T04:46:32.154Z,46.43
2023-05-09T04:49:00.109Z,42.43
2023-05-09T04:51:27.986Z,44.03
2023-05-09T04:53:57.330Z,42.40
2023-05-09T04:56:25.353Z,41.80
2023-05-09T04:58:53.725Z,42.30
2023-05-09T05:01:21.732Z,43.10
2023-05-09T05:03:49.667Z,43.57
2023-05-09T05:06:17.576Z,42.27
2023-05-09T05:08:45.523Z,41.77
2023-05-09T05:11:15.109Z,43.13
2023-05-09T05:13:43.038Z,41.60
2023-05-09T05:16:11.037Z,46.93
2023-05-09T05:18:39.022Z,44.73
2023-05-09T05:21:07.084Z,43.60
2023-05-09T05:23:35.046Z,44.47
2023-05-09T05:26:02.969Z,46.10
2023-05-09T05:28:32.257Z,43.33
2023-05-09T05:31:00.204Z,43.37
2023-05-09T05:33:28.144Z,43.80
2023-05-09T05:35:56.038Z,43.67
2023-05-09T05:38:23.920Z,45.23
2023-05-09T05:40:51.854Z,45.30
2023-05-09T05:43:19.807Z,48.10
2023-05-09T05:45:49.116Z,45.23
2023-05-09T05:48:17.048Z,45.27
2023-05-09T05:50:45.096Z,46.27
2023-05-09T05:53:13.060Z,45.23
2023-05-09T05:55:41.122Z,45.73
2023-05-09T05:58:09.058Z,44.77
2023-05-09T06:00:36.977Z,44.30
2023-05-09T06:03:06.359Z,42.67
2023-05-09T06:05:34.844Z,43.47
2023-05-09T06:08:02.724Z,44.07
2023-05-09T06:10:30.633Z,43.70
2023-05-09T06:12:58.517Z,42.47
2023-05-09T06:15:26.498Z,45.03
2023-05-09T06:17:55.272Z,43.33
2023-05-09T06:20:24.639Z,43.97
2023-05-09T06:22:53.271Z,40.97
2023-05-09T06:25:21.599Z,41.30
2023-05-09T06:27:49.592Z,40.17
2023-05-09T06:30:26.413Z,42.77
2023-05-09T06:32:55.113Z,41.27
2023-05-09T06:35:24.726Z,43.23
2023-05-09T06:37:52.779Z,41.27
2023-05-09T06:40:21.075Z,42.73
2023-05-09T06:42:48.996Z,42.73
2023-05-09T06:45:17.258Z,43.07
2023-05-09T06:47:45.535Z,44.40
2023-05-09T06:50:13.612Z,41.20
2023-05-09T06:52:42.917Z,42.83
2023-05-09T06:55:12.064Z,42.50
2023-05-09T06:57:40.655Z,42.50
2023-05-09T07:00:10.074Z,44.00
2023-05-09T07:02:41.677Z,43.13
2023-05-09T07:05:10.649Z,44.00
2023-05-09T07:07:38.713Z,42.97
2023-05-09T07:10:11.779Z,43.20
2023-05-09T07:12:40.486Z,42.93
2023-05-09T07:15:09.824Z,42.87
2023-05-09T07:17:37.871Z,42.57
2023-05-09T07:20:07.112Z,42.77
2023-05-09T07:22:37.450Z,44.07
2023-05-09T07:25:08.814Z,44.40
2023-05-09T07:27:37.043Z,43.83
2023-05-09T07:30:05.470Z,43.13
2023-05-09T07:32:33.553Z,44.03
2023-05-09T07:35:01.731Z,43.13
2023-05-09T07:37:29.698Z,44.10
2023-05-09T07:39:57.652Z,42.87
2023-05-09T07:42:27.040Z,43.50
2023-05-09T07:44:55.096Z,45.40
2023-05-09T07:47:23.394Z,44.17
2023-05-09T07:49:51.778Z,43.80
2023-05-09T07:52:21.099Z,46.13
2023-05-09T07:54:49.111Z,46.20
2023-05-09T07:57:17.211Z,45.13
2023-05-09T07:59:46.527Z,45.40
2023-05-09T08:02:14.490Z,47.10
2023-05-09T08:04:42.632Z,46.90
2023-05-09T08:07:11.838Z,45.50
2023-05-09T08:09:39.904Z,45.37
2023-05-09T08:12:08.528Z,45.97
2023-05-09T08:14:36.496Z,44.87
2023-05-09T08:17:05.831Z,46.47
2023-05-09T08:19:33.786Z,46.70
2023-05-09T08:22:01.760Z,47.17
2023-05-09T08:24:29.694Z,48.03
2023-05-09T08:26:57.587Z,45.93
2023-05-09T08:29:25.563Z,48.07
2023-05-09T08:31:53.505Z,46.57
2023-05-09T08:34:23.231Z,46.30
2023-05-09T08:36:51.141Z,54.97
2023-05-09T08:39:19.266Z,46.73
2023-05-09T08:41:47.416Z,50.80
2023-05-09T08:44:15.646Z,47.70
2023-05-09T08:46:45.332Z,46.70
2023-05-09T08:49:13.427Z,47.37
2023-05-09T08:51:42.970Z,45.93
2023-05-09T08:54:11.228Z,48.80
2023-05-09T08:56:39.375Z,49.73
2023-05-09T08:59:07.651Z,47.03
2023-05-09T09:01:36.466Z,49.00
2023-05-09T09:04:07.731Z,47.97
2023-05-09T09:06:36.806Z,47.23
2023-05-09T09:09:08.423Z,47.63
2023-05-09T09:11:37.475Z,47.83
2023-05-09T09:14:12.820Z,48.27
2023-05-09T09:16:42.713Z,48.93
2023-05-09T09:19:13.805Z,50.67
2023-05-09T09:21:43.857Z,47.67
2023-05-09T09:24:15.020Z,47.47
2023-05-09T09:26:48.561Z,48.43
2023-05-09T09:29:17.879Z,46.80
2023-05-09T09:31:46.801Z,48.53
2023-05-09T09:34:21.235Z,48.63
2023-05-09T09:36:49.469Z,52.67
2023-05-09T09:39:18.891Z,48.87
2023-05-09T09:41:46.836Z,49.17
2023-05-09T09:44:16.729Z,49.87
2023-05-09T09:46:46.479Z,57.00
2023-05-09T09:49:16.004Z,48.77
2023-05-09T09:51:44.474Z,48.97
2023-05-09T09:54:16.269Z,50.20
2023-05-09T09:56:46.742Z,56.63
2023-05-09T09:59:16.228Z,49.60
2023-05-09T10:02:04.880Z,50.73
2023-05-09T10:04:35.977Z,51.83
2023-05-09T10:07:06.200Z,52.13
2023-05-09T10:09:37.873Z,51.80
2023-05-09T10:12:08.880Z,50.47
2023-05-09T10:14:39.256Z,50.63
2023-05-09T10:17:07.525Z,50.47
2023-05-09T10:19:39.103Z,51.03
2023-05-09T10:22:11.349Z,50.33
2023-05-09T10:24:43.115Z,51.47
2023-05-09T10:27:13.642Z,50.80
2023-05-09T10:29:45.775Z,50.57
2023-05-09T10:32:20.485Z,51.17
2023-05-09T10:34:52.296Z,51.17
2023-05-09T10:37:22.517Z,50.27
2023-05-09T11:08:09.379Z,50.40
2023-05-09T11:10:44.217Z,49.73
2023-05-09T11:13:13.635Z,50.60
2023-05-09T11:15:52.532Z,49.70
2023-05-09T11:18:20.846Z,57.23
2023-05-09T11:20:51.384Z,50.87
2023-05-09T11:23:20.423Z,51.47
2023-05-09T11:25:49.612Z,53.20
2023-05-09T11:28:29.902Z,51.03
2023-05-09T11:31:11.227Z,52.43
2023-05-09T11:33:40.601Z,52.40
2023-05-09T11:36:25.408Z,52.13
2023-05-09T11:39:03.198Z,51.83
2023-05-09T11:41:31.403Z,51.07
2023-05-09T11:44:01.129Z,50.30
2023-05-09T11:46:29.219Z,51.90
2023-05-09T11:48:57.982Z,50.30
2023-05-09T11:51:26.796Z,56.37
2023-05-09T11:53:55.012Z,51.10
2023-05-09T11:56:24.072Z,51.37
2023-05-09T11:58:53.253Z,49.97
2023-05-09T12:01:24.292Z,49.97
2023-05-09T12:03:52.617Z,49.40
2023-05-09T12:06:21.201Z,49.23
2023-05-09T12:08:49.389Z,50.93
2023-05-09T12:11:19.977Z,49.77
2023-05-09T12:13:48.975Z,48.67
2023-05-09T12:16:18.329Z,48.83
2023-05-09T12:18:48.724Z,49.30
2023-05-09T12:21:17.380Z,49.17
2023-05-09T12:23:45.630Z,49.53
2023-05-09T12:26:13.772Z,49.80
2023-05-09T12:28:42.514Z,49.60
2023-05-09T12:31:10.642Z,49.03
2023-05-09T12:33:39.549Z,50.47
2023-05-09T12:36:12.108Z,50.10
2023-05-09T12:38:40.306Z,49.70
2023-05-09T12:41:18.691Z,51.13
2023-05-09T12:43:51.494Z,51.80
2023-05-09T12:46:20.344Z,50.90
2023-05-09T12:48:49.492Z,51.87
2023-05-09T12:51:22.260Z,51.43
2023-05-09T12:53:50.185Z,51.17
2023-05-09T12:56:19.540Z,52.33
2023-05-09T12:58:52.224Z,51.33
2023-05-09T13:01:20.436Z,51.80
2023-05-09T13:03:53.241Z,55.73
2023-05-09T13:06:24.307Z,52.40
2023-05-09T13:09:02.886Z,51.00
2023-05-09T13:11:31.481Z,52.13
2023-05-09T13:13:59.966Z,50.73
2023-05-09T13:16:28.306Z,51.80
2023-05-09T13:18:58.388Z,51.33
2023-05-09T13:21:27.834Z,52.57
2023-05-09T13:23:55.840Z,51.80
2023-05-09T13:26:23.863Z,53.53
2023-05-09T13:28:51.902Z,52.53
2023-05-09T13:31:20.137Z,53.40
2023-05-09T13:33:51.888Z,51.83
2023-05-09T13:36:20.284Z,55.23
2023-05-09T13:38:49.673Z,55.00
2023-05-09T13:41:20.827Z,52.50
2023-05-09T13:43:48.961Z,55.40
2023-05-09T13:46:17.226Z,51.63
2023-05-09T13:48:45.407Z,57.10
2023-05-09T13:51:13.910Z,51.27
2023-05-09T13:53:41.933Z,51.13
2023-05-09T13:56:11.861Z,53.80
2023-05-09T13:58:39.849Z,52.10
2023-05-09T14:01:08.061Z,51.83
2023-05-09T14:03:36.175Z,52.03
2023-05-09T14:06:04.673Z,51.07
2023-05-09T14:08:33.103Z,51.07
2023-05-09T14:11:01.065Z,50.70
2023-05-09T14:13:31.854Z,50.63
2023-05-09T14:16:00.127Z,51.93
2023-05-09T14:18:28.287Z,50.53
2023-05-09T14:20:56.524Z,50.43
2023-05-09T14:23:24.590Z,50.30
2023-05-09T14:25:52.540Z,57.17
2023-05-09T14:28:20.478Z,52.17
2023-05-09T14:30:49.756Z,51.37
2023-05-09T14:33:17.672Z,51.83
2023-05-09T14:35:45.579Z,63.90
2023-05-09T14:38:13.736Z,52.00
2023-05-09T14:40:41.779Z,51.57
2023-05-09T14:43:09.699Z,54.83
2023-05-09T14:45:37.655Z,53.67
2023-05-09T14:48:07.475Z,51.53
2023-05-09T14:50:35.569Z,50.80
2023-05-09T14:53:03.806Z,50.67
2023-05-09T14:55:32.392Z,51.40
2023-05-09T14:58:00.371Z,51.70
2023-05-09T15:00:28.961Z,50.10
2023-05-09T15:02:57.495Z,55.20
2023-05-09T15:05:27.032Z,49.93
2023-05-09T15:07:54.912Z,51.20
2023-05-09T15:10:23.002Z,48.90
2023-05-09T15:12:50.954Z,50.47
2023-05-09T15:15:20.164Z,52.70
2023-05-09T15:17:48.320Z,50.73
2023-05-09T15:20:18.206Z,47.10
2023-05-09T15:22:48.351Z,52.43
2023-05-09T15:25:16.737Z,48.00
2023-05-09T15:27:44.722Z,51.57
2023-05-09T15:30:22.474Z,49.33
2023-05-09T15:32:50.510Z,48.17
2023-05-09T15:35:18.746Z,49.37
2023-05-09T15:37:47.993Z,46.50
2023-05-09T15:40:16.140Z,45.70
2023-05-09T15:42:44.324Z,46.37
2023-05-09T15:45:12.671Z,46.00
2023-05-09T15:47:40.758Z,49.33
2023-05-09T15:50:09.953Z,51.07
2023-05-09T15:52:37.908Z,45.63
2023-05-09T15:55:09.361Z,46.63
2023-05-09T15:57:37.332Z,47.43
2023-05-09T16:00:06.111Z,45.60
2023-05-09T16:02:34.106Z,44.80
2023-05-09T16:05:02.101Z,46.13
2023-05-09T16:07:30.118Z,45.10
2023-05-09T16:09:58.059Z,44.73
2023-05-09T16:12:28.345Z,44.70
2023-05-09T16:14:56.309Z,45.07
2023-05-09T16:17:24.230Z,43.10
2023-05-09T16:19:52.153Z,51.83
2023-05-09T16:22:20.104Z,48.70
2023-05-09T16:24:49.065Z,46.97
2023-05-09T16:27:17.156Z,46.67
2023-05-09T16:29:46.878Z,46.83
2023-05-09T16:32:14.806Z,50.87
2023-05-09T16:34:42.852Z,44.13
2023-05-09T16:37:10.790Z,44.30
2023-05-09T16:39:38.738Z,48.17
2023-05-09T16:42:06.759Z,42.87
2023-05-09T16:44:34.727Z,44.17
2023-05-09T16:47:05.717Z,45.83
2023-05-09T16:49:33.758Z,42.73
2023-05-09T16:52:01.796Z,43.83
2023-05-09T16:54:29.907Z,46.00
2023-05-09T16:57:00.959Z,51.93
2023-05-09T16:59:29.090Z,42.93
2023-05-09T17:01:57.664Z,47.20
2023-05-09T17:04:27.526Z,42.97
2023-05-09T17:06:57.718Z,48.33
2023-05-09T17:09:25.804Z,43.10
2023-05-09T17:11:53.814Z,50.83
2023-05-09T17:14:21.774Z,45.63
2023-05-09T17:16:49.877Z,53.53
2023-05-09T17:19:18.971Z,42.50
2023-05-09T17:21:48.360Z,45.57
2023-05-09T17:24:16.286Z,44.20
2023-05-09T17:26:44.226Z,45.97
2023-05-09T17:29:12.284Z,44.20
2023-05-09T17:31:40.388Z,43.30
2023-05-09T17:34:08.380Z,41.53
2023-05-09T17:36:36.414Z,42.93
2023-05-09T17:39:13.162Z,42.80
2023-05-09T17:41:41.490Z,42.70
2023-05-09T17:44:09.472Z,43.43
2023-05-09T17:46:41.096Z,43.17
2023-05-09T17:49:10.962Z,42.93
2023-05-09T17:51:38.939Z,43.73
2023-05-09T17:54:08.355Z,42.93
2023-05-09T17:56:36.437Z,42.57
2023-05-09T17:59:04.591Z,43.50
2023-05-09T18:01:32.949Z,42.20
2023-05-09T18:04:03.996Z,41.80
2023-05-09T18:06:32.126Z,42.90
2023-05-09T18:09:00.134Z,44.77
2023-05-09T18:11:29.541Z,45.17
2023-05-09T18:13:57.637Z,42.70
2023-05-09T18:16:25.543Z,45.27
2023-05-09T18:18:53.548Z,44.53
2023-05-09T18:21:21.629Z,41.63
2023-05-09T18:23:49.654Z,44.83
2023-05-09T18:26:17.985Z,42.20
2023-05-09T18:28:47.436Z,43.27
2023-05-09T18:31:15.721Z,46.10
2023-05-09T18:33:47.635Z,42.47
2023-05-09T18:36:15.867Z,42.27
2023-05-09T18:38:47.787Z,41.83
2023-05-09T18:41:16.727Z,41.40
2023-05-09T18:43:46.818Z,40.17
2023-05-09T18:46:27.437Z,44.47
2023-05-09T18:50:09.492Z,43.23
2023-05-09T18:52:37.507Z,42.60
2023-05-09T18:55:06.944Z,42.47
2023-05-09T18:57:35.044Z,47.40
2023-05-09T19:00:05.365Z,44.30
2023-05-09T19:02:34.919Z,48.60
2023-05-09T19:05:06.379Z,43.97
2023-05-09T19:07:34.416Z,48.83
2023-05-09T19:10:03.927Z,47.43
2023-05-09T19:12:32.506Z,44.47
2023-05-09T19:15:14.827Z,49.67
2023-05-09T19:17:44.897Z,42.93
2023-05-09T19:23:40.586Z,42.57
2023-05-09T19:26:08.711Z,44.20
2023-05-09T19:28:36.723Z,44.37
2023-05-09T19:31:04.975Z,42.20
2023-05-09T19:33:35.890Z,45.97
2023-05-09T19:36:05.785Z,44.30
2023-05-09T19:38:35.913Z,41.70
2023-05-09T19:41:05.525Z,45.50
2023-05-09T19:43:52.374Z,42.33
